createdAt,value
2022-10-01T00:01:05.000Z,21.82
2022-10-01T00:03:32.497Z,21.09
2022-10-01T00:06:00.293Z,21.42
2022-10-01T00:08:27.938Z,19.99
2022-10-01T00:10:55.427Z,20.53
2022-10-01T00:13:22.660Z,18.83
2022-10-01T00:15:49.779Z,18.16
2022-10-01T00:18:17.182Z,19.02
2022-10-01T00:20:44.348Z,20.08
2022-10-01T00:23:11.878Z,20.55
2022-10-01T00:25:39.561Z,21.13
2022-10-01T00:28:06.865Z,21.55
2022-10-01T00:30:40.240Z,21.77
2022-10-01T00:33:07.945Z,21.62
2022-10-01T00:35:35.060Z,22.08
2022-10-01T00:38:02.167Z,22.27
2022-10-01T00:40:29.547Z,22.64
2022-10-01T00:42:56.691Z,22.73
2022-10-01T00:45:23.809Z,22.90
2022-10-01T00:47:52.131Z,22.78
2022-10-01T00:50:24.276Z,22.34
2022-10-01T00:52:52.957Z,22.59
2022-10-01T00:55:21.278Z,22.53
2022-10-01T00:57:48.409Z,22.87
2022-10-01T01:00:15.985Z,23.05
2022-10-01T01:02:43.337Z,23.03
2022-10-01T01:05:12.352Z,23.01
2022-10-01T01:07:43.106Z,23.23
2022-10-01T01:10:10.250Z,23.30
2022-10-01T01:12:45.382Z,23.46
2022-10-01T01:15:25.772Z,23.37
2022-10-01T01:18:11.826Z,23.15
2022-10-01T01:20:45.558Z,23.39
2022-10-01T01:23:16.103Z,23.47
2022-10-01T01:26:01.665Z,23.33
2022-10-01T01:28:32.757Z,23.40
2022-10-01T01:31:01.258Z,23.23
2022-10-01T01:33:29.149Z,23.27
2022-10-01T01:35:57.619Z,23.42
2022-10-01T01:38:28.969Z,23.00
2022-10-01T01:40:57.449Z,22.81
2022-10-01T01:43:26.820Z,23.12
2022-10-01T01:45:55.186Z,23.36
2022-10-01T01:48:22.833Z,23.51
2022-10-01T01:51:16.522Z,22.43
2022-10-01T01:53:43.650Z,23.35
2022-10-01T01:56:11.281Z,23.33
2022-10-01T01:58:38.535Z,23.26
2022-10-01T02:01:05.660Z,23.34
2022-10-01T02:03:33.356Z,23.48
2022-10-01T02:06:12.358Z,21.93
2022-10-01T02:08:47.480Z,22.15
2022-10-01T02:11:31.793Z,22.02
2022-10-01T02:14:12.495Z,22.14
2022-10-01T02:16:39.498Z,21.20
2022-10-01T02:19:09.862Z,21.68
2022-10-01T02:21:55.474Z,21.83
2022-10-01T02:24:26.629Z,21.27
2022-10-01T02:26:53.750Z,20.79
2022-10-01T02:29:21.384Z,20.69
2022-10-01T02:31:49.250Z,20.06
2022-10-01T02:34:20.102Z,21.20
2022-10-01T02:36:47.985Z,21.28
2022-10-01T02:39:15.654Z,21.25
2022-10-01T02:41:43.133Z,21.34
2022-10-01T02:44:10.832Z,21.55
2022-10-01T02:46:41.613Z,21.61
2022-10-01T02:49:09.104Z,20.06
2022-10-01T02:51:48.762Z,21.48
2022-10-01T02:54:18.172Z,21.70
2022-10-01T02:57:04.072Z,21.96
2022-10-01T02:59:31.506Z,21.30
2022-10-01T03:01:58.717Z,20.47
2022-10-01T03:04:25.899Z,20.76
2022-10-01T03:06:53.273Z,21.27
2022-10-01T03:09:20.389Z,19.80
2022-10-01T03:11:47.493Z,19.78
2022-10-01T03:14:14.889Z,19.50
2022-10-01T03:16:42.001Z,20.48
2022-10-01T03:19:09.127Z,19.81
2022-10-01T03:21:36.831Z,20.61
2022-10-01T03:24:04.274Z,20.06
2022-10-01T03:26:31.411Z,20.26
2022-10-01T03:28:58.774Z,19.92
2022-10-01T03:31:26.044Z,20.42
2022-10-01T03:33:53.222Z,20.64
2022-10-01T03:36:20.670Z,20.55
2022-10-01T03:38:47.787Z,20.26
2022-10-01T03:41:14.909Z,20.97
2022-10-01T03:43:42.299Z,21.22
2022-10-01T03:46:09.451Z,21.77
2022-10-01T03:48:36.886Z,22.19
2022-10-01T03:51:04.284Z,22.00
2022-10-01T03:53:31.690Z,22.39
2022-10-01T03:55:59.467Z,22.14
2022-10-01T03:58:26.893Z,22.03
2022-10-01T04:00:57.990Z,21.80
2022-10-01T04:03:25.405Z,20.24
2022-10-01T04:05:52.499Z,20.81
2022-10-01T04:08:24.069Z,20.96
2022-10-01T04:10:51.805Z,21.31
2022-10-01T04:13:19.081Z,21.82
2022-10-01T04:15:46.438Z,22.28
2022-10-01T04:18:13.857Z,22.34
2022-10-01T04:20:41.558Z,22.68
2022-10-01T04:23:08.737Z,22.12
2022-10-01T04:25:36.282Z,22.58
2022-10-01T04:28:04.498Z,22.16
2022-10-01T04:30:32.977Z,21.67
2022-10-01T04:33:00.330Z,22.02
2022-10-01T04:35:27.769Z,22.39
2022-10-01T04:37:55.869Z,22.56
2022-10-01T04:40:23.505Z,22.54
2022-10-01T04:42:50.702Z,21.95
2022-10-01T04:45:17.851Z,22.36
2022-10-01T04:47:51.851Z,22.54
2022-10-01T04:50:19.160Z,22.39
2022-10-01T04:52:48.850Z,22.50
2022-10-01T04:55:16.421Z,20.26
2022-10-01T04:57:44.075Z,21.93
2022-10-01T05:00:12.731Z,22.03
2022-10-01T05:02:39.867Z,22.41
2022-10-01T05:05:07.436Z,22.37
2022-10-01T05:07:35.141Z,22.79
2022-10-01T05:10:02.322Z,22.34
2022-10-01T05:12:30.005Z,22.27
2022-10-01T05:14:57.431Z,21.47
2022-10-01T05:17:24.554Z,21.34
2022-10-01T05:19:51.767Z,21.81
2022-10-01T05:22:19.389Z,22.17
2022-10-01T05:24:47.497Z,22.08
2022-10-01T05:27:14.737Z,22.19
2022-10-01T05:29:42.217Z,21.60
2022-10-01T05:32:10.138Z,22.17
2022-10-01T05:34:37.304Z,21.23
2022-10-01T05:37:04.984Z,21.12
2022-10-01T05:39:32.868Z,21.49
2022-10-01T05:42:06.189Z,21.47
2022-10-01T05:44:37.972Z,22.18
2022-10-01T05:47:06.224Z,21.04
2022-10-01T05:49:33.591Z,21.75
2022-10-01T05:52:01.158Z,21.76
2022-10-01T05:54:29.525Z,21.76
2022-10-01T05:56:57.057Z,21.46
2022-10-01T05:59:28.477Z,20.14
2022-10-01T06:01:58.675Z,21.45
2022-10-01T06:04:26.152Z,22.01
2022-10-01T06:06:53.587Z,22.01
2022-10-01T06:09:20.704Z,22.20
2022-10-01T06:11:48.995Z,22.20
2022-10-01T06:14:17.383Z,21.79
2022-10-01T06:16:44.734Z,21.64
2022-10-01T06:19:12.219Z,21.36
2022-10-01T06:21:39.333Z,21.21
2022-10-01T06:24:09.333Z,21.08
2022-10-01T06:26:36.753Z,21.81
2022-10-01T06:29:03.897Z,21.91
2022-10-01T06:31:31.083Z,22.13
2022-10-01T06:33:58.569Z,22.33
2022-10-01T06:36:25.687Z,22.72
2022-10-01T06:38:52.980Z,22.60
2022-10-01T06:41:20.398Z,21.71
2022-10-01T06:43:48.471Z,22.37
2022-10-01T06:46:15.620Z,22.51
2022-10-01T06:48:43.076Z,22.56
2022-10-01T06:51:10.206Z,22.17
2022-10-01T06:53:37.348Z,22.27
2022-10-01T06:56:08.596Z,20.70
2022-10-01T06:58:37.394Z,21.46
2022-10-01T07:01:04.977Z,20.90
2022-10-01T07:03:32.183Z,20.71
2022-10-01T07:06:03.860Z,21.71
2022-10-01T07:08:31.258Z,21.18
2022-10-01T07:11:02.556Z,21.96
2022-10-01T07:13:29.726Z,21.72
2022-10-01T07:15:57.199Z,20.98
2022-10-01T07:18:24.358Z,20.90
2022-10-01T07:20:51.497Z,21.94
2022-10-01T07:23:18.922Z,21.57
2022-10-01T07:25:46.062Z,21.89
2022-10-01T07:28:16.631Z,21.90
2022-10-01T07:30:47.406Z,20.74
2022-10-01T07:33:17.673Z,21.17
2022-10-01T07:35:47.760Z,21.25
2022-10-01T07:38:15.018Z,20.44
2022-10-01T07:40:42.121Z,20.58
2022-10-01T07:43:09.768Z,19.86
2022-10-01T07:45:36.923Z,20.84
2022-10-01T07:48:04.345Z,21.26
2022-10-01T07:50:31.776Z,20.93
2022-10-01T07:53:00.120Z,21.41
2022-10-01T07:55:28.069Z,21.51
2022-10-01T07:57:56.314Z,21.86
2022-10-01T08:00:26.627Z,21.86
2022-10-01T08:02:56.000Z,21.69
2022-10-01T08:05:30.455Z,21.30
2022-10-01T08:07:58.590Z,21.59
2022-10-01T08:10:25.885Z,22.21
2022-10-01T08:12:59.055Z,22.37
2022-10-01T08:15:26.451Z,22.22
2022-10-01T08:17:53.583Z,22.49
2022-10-01T08:20:21.509Z,22.52
2022-10-01T08:22:48.897Z,22.69
2022-10-01T08:25:16.000Z,22.47
2022-10-01T08:27:43.110Z,22.58
2022-10-01T08:30:10.589Z,22.51
2022-10-01T08:32:37.731Z,22.02
2022-10-01T08:35:05.360Z,22.95
2022-10-01T08:37:32.916Z,21.02
2022-10-01T08:40:00.215Z,20.65
2022-10-01T08:42:33.427Z,21.70
2022-10-01T08:45:02.997Z,20.89
2022-10-01T08:47:30.220Z,20.53
2022-10-01T08:50:00.968Z,21.57
2022-10-01T08:52:28.898Z,21.78
2022-10-01T08:55:00.627Z,22.32
2022-10-01T08:57:31.322Z,22.11
2022-10-01T08:59:59.579Z,22.50
2022-10-01T09:02:26.645Z,22.86
2022-10-01T09:05:00.345Z,23.19
2022-10-01T09:07:51.516Z,23.29
2022-10-01T09:10:24.776Z,23.31
2022-10-01T09:13:11.057Z,23.33
2022-10-01T09:15:41.366Z,23.51
2022-10-01T09:18:15.959Z,22.13
2022-10-01T09:20:44.122Z,22.91
2022-10-01T09:23:18.908Z,22.36
2022-10-01T09:25:47.922Z,22.66
2022-10-01T09:28:21.574Z,23.11
2022-10-01T09:30:55.834Z,23.78
2022-10-01T09:33:24.834Z,21.67
2022-10-01T09:36:04.122Z,23.41
2022-10-01T09:38:41.772Z,22.14
2022-10-01T09:41:13.155Z,21.70
2022-10-01T09:43:41.136Z,22.79
2022-10-01T09:46:14.533Z,23.12
2022-10-01T09:48:57.261Z,22.31
2022-10-01T09:51:57.084Z,22.77
2022-10-01T09:54:27.577Z,22.37
2022-10-01T09:56:57.049Z,22.72
2022-10-01T09:59:27.132Z,22.67
2022-10-01T10:01:57.041Z,23.03
2022-10-01T10:04:24.667Z,23.03
2022-10-01T10:06:53.517Z,23.75
2022-10-01T10:09:21.944Z,23.91
2022-10-01T10:11:49.336Z,24.42
2022-10-01T10:14:28.764Z,24.41
2022-10-01T10:16:56.717Z,23.59
2022-10-01T10:19:25.887Z,23.17
2022-10-01T10:21:54.441Z,24.14
2022-10-01T10:24:24.841Z,24.06
2022-10-01T10:26:56.129Z,24.46
2022-10-01T10:29:28.165Z,23.70
2022-10-01T10:31:55.536Z,23.87
2022-10-01T10:34:38.426Z,23.65
2022-10-01T10:37:06.875Z,23.77
2022-10-01T10:39:37.753Z,24.15
2022-10-01T10:42:05.940Z,24.13
2022-10-01T10:44:38.850Z,24.65
2022-10-01T10:47:10.033Z,24.10
2022-10-01T10:49:51.833Z,24.25
2022-10-01T10:52:29.739Z,24.00
2022-10-01T10:54:59.918Z,24.78
2022-10-01T10:57:28.218Z,24.95
2022-10-01T11:00:11.020Z,24.87
2022-10-01T11:02:39.385Z,24.41
2022-10-01T11:05:16.867Z,24.58
2022-10-01T11:07:44.861Z,24.85
2022-10-01T11:10:30.638Z,24.52
2022-10-01T11:13:07.174Z,24.78
2022-10-01T11:15:40.141Z,25.12
2022-10-01T11:18:26.245Z,25.26
2022-10-01T11:21:16.348Z,25.76
2022-10-01T11:23:48.284Z,24.89
2022-10-01T11:26:34.437Z,23.74
2022-10-01T11:29:15.466Z,24.34
2022-10-01T11:31:49.687Z,23.26
2022-10-01T11:34:23.615Z,24.16
2022-10-01T11:37:10.938Z,24.77
2022-10-01T11:39:38.359Z,25.14
2022-10-01T11:42:06.708Z,25.48
2022-10-01T11:44:36.771Z,25.11
2022-10-01T11:47:11.538Z,25.64
2022-10-01T11:49:44.617Z,25.66
2022-10-01T11:52:14.734Z,25.46
2022-10-01T11:54:54.225Z,24.76
2022-10-01T11:57:42.105Z,24.85
2022-10-01T12:00:10.712Z,25.85
2022-10-01T12:02:39.209Z,24.40
2022-10-01T12:05:26.906Z,25.55
2022-10-01T12:07:53.989Z,25.54
2022-10-01T12:10:40.173Z,25.65
2022-10-01T12:13:16.134Z,25.54
2022-10-01T12:15:45.387Z,25.68
2022-10-01T12:18:15.535Z,25.79
2022-10-01T12:20:46.556Z,26.24
2022-10-01T12:23:15.184Z,26.05
2022-10-01T12:25:51.162Z,25.50
2022-10-01T12:28:19.843Z,25.73
2022-10-01T12:30:53.893Z,25.60
2022-10-01T12:33:36.541Z,25.58
2022-10-01T12:36:03.647Z,25.02
2022-10-01T12:38:42.057Z,25.15
2022-10-01T12:41:15.291Z,25.18
2022-10-01T12:43:47.936Z,24.72
2022-10-01T12:46:21.139Z,24.73
2022-10-01T12:48:54.897Z,24.76
2022-10-01T12:51:28.328Z,25.09
2022-10-01T12:54:14.648Z,24.85
2022-10-01T12:56:45.508Z,25.21
2022-10-01T12:59:17.486Z,25.64
2022-10-01T13:01:44.585Z,25.64
2022-10-01T13:04:24.296Z,25.79
2022-10-01T13:07:01.703Z,25.03
2022-10-01T13:09:35.006Z,25.66
2022-10-01T13:12:08.220Z,25.64
2022-10-01T13:14:35.338Z,26.00
2022-10-01T13:17:04.510Z,25.76
2022-10-01T13:19:40.803Z,25.96
2022-10-01T13:22:16.287Z,25.73
2022-10-01T13:24:46.940Z,26.30
2022-10-01T13:27:29.870Z,26.23
2022-10-01T13:30:01.154Z,26.08
2022-10-01T13:32:51.304Z,26.10
2022-10-01T13:35:35.533Z,25.73
2022-10-01T13:38:17.212Z,25.62
2022-10-01T13:40:44.309Z,26.51
2022-10-01T13:43:15.336Z,26.00
2022-10-01T13:45:43.405Z,25.00
2022-10-01T13:48:10.442Z,23.02
2022-10-01T13:50:41.319Z,23.10
2022-10-01T13:53:15.041Z,23.83
2022-10-01T13:55:43.705Z,23.48
2022-10-01T13:58:29.535Z,23.36
2022-10-01T14:00:57.919Z,23.44
2022-10-01T14:03:33.609Z,23.33
2022-10-01T14:06:01.372Z,22.30
2022-10-01T14:08:29.668Z,23.54
2022-10-01T14:11:36.990Z,23.73
2022-10-01T14:14:28.434Z,23.72
2022-10-01T14:16:56.394Z,24.08
2022-10-01T14:19:25.179Z,24.11
2022-10-01T14:22:08.005Z,23.07
2022-10-01T14:24:57.607Z,22.54
2022-10-01T14:27:31.684Z,22.98
2022-10-01T14:30:17.972Z,22.99
2022-10-01T14:32:50.968Z,23.36
2022-10-01T14:35:37.186Z,23.43
2022-10-01T14:38:04.869Z,23.81
2022-10-01T14:40:39.474Z,24.14
2022-10-01T14:43:15.797Z,24.00
2022-10-01T14:45:52.326Z,24.28
2022-10-01T14:48:19.611Z,23.37
2022-10-01T14:50:49.304Z,23.56
2022-10-01T14:53:17.197Z,22.98
2022-10-01T14:55:44.471Z,22.91
2022-10-01T14:58:17.068Z,22.92
2022-10-01T15:00:48.089Z,22.99
2022-10-01T15:03:15.829Z,22.61
2022-10-01T15:05:43.304Z,22.05
2022-10-01T15:08:11.777Z,23.28
2022-10-01T15:10:45.430Z,22.98
2022-10-01T15:13:19.997Z,22.92
2022-10-01T15:15:47.378Z,22.61
2022-10-01T15:18:14.732Z,23.85
2022-10-01T15:21:00.600Z,22.70
2022-10-01T15:23:28.880Z,22.42
2022-10-01T15:25:56.917Z,22.27
2022-10-01T15:28:32.885Z,22.29
2022-10-01T15:31:00.979Z,22.21
2022-10-01T15:33:29.583Z,22.48
2022-10-01T15:35:58.038Z,22.97
2022-10-01T15:38:25.926Z,22.56
2022-10-01T15:41:05.020Z,22.57
2022-10-01T15:43:42.105Z,22.42
2022-10-01T15:46:15.323Z,23.22
2022-10-01T15:48:42.721Z,22.40
2022-10-01T15:51:20.703Z,22.05
2022-10-01T15:53:48.113Z,21.57
2022-10-01T15:56:16.597Z,21.86
2022-10-01T15:58:46.772Z,22.26
2022-10-01T16:01:15.315Z,22.10
2022-10-01T16:04:02.416Z,22.83
2022-10-01T16:06:33.833Z,22.60
2022-10-01T16:09:06.013Z,22.27
2022-10-01T16:11:49.956Z,22.52
2022-10-01T16:14:34.675Z,22.87
2022-10-01T16:17:17.346Z,23.25
2022-10-01T16:19:45.322Z,23.23
2022-10-01T16:22:14.688Z,22.57
2022-10-01T16:24:42.706Z,23.02
2022-10-01T16:27:12.786Z,22.33
2022-10-01T16:29:39.902Z,22.45
2022-10-01T16:32:08.218Z,21.63
2022-10-01T16:34:35.590Z,20.97
2022-10-01T16:37:02.731Z,21.78
2022-10-01T16:39:29.844Z,21.36
2022-10-01T16:42:22.181Z,21.28
2022-10-01T16:44:44.339Z,20.69
2022-10-01T16:47:12.138Z,20.90
2022-10-01T16:49:39.269Z,21.30
2022-10-01T16:52:06.507Z,21.22
2022-10-01T16:54:34.334Z,21.80
2022-10-01T16:57:01.981Z,21.22
2022-10-01T16:59:29.143Z,21.33
2022-10-01T17:01:57.459Z,21.37
2022-10-01T17:04:29.239Z,20.78
2022-10-01T17:06:59.647Z,21.16
2022-10-01T17:09:26.955Z,20.82
2022-10-01T17:11:54.123Z,21.02
2022-10-01T17:14:21.530Z,21.32
2022-10-01T17:16:50.533Z,21.44
2022-10-01T17:19:18.255Z,21.52
2022-10-01T17:21:45.680Z,21.48
2022-10-01T17:24:13.101Z,21.14
2022-10-01T17:26:40.695Z,19.95
2022-10-01T17:29:08.754Z,20.20
2022-10-01T17:31:36.700Z,20.47
2022-10-01T17:34:04.393Z,20.68
2022-10-01T17:36:32.008Z,21.13
2022-10-01T17:38:59.220Z,19.96
2022-10-01T17:41:26.459Z,20.76
2022-10-01T17:43:53.860Z,20.56
2022-10-01T17:46:21.074Z,21.70
2022-10-01T17:48:49.393Z,20.71
2022-10-01T17:51:17.068Z,20.75
2022-10-01T17:53:44.197Z,21.37
2022-10-01T17:56:18.026Z,21.07
2022-10-01T17:58:51.803Z,21.03
2022-10-01T18:01:22.272Z,20.68
2022-10-01T18:03:55.024Z,20.61
2022-10-01T18:06:22.796Z,20.44
2022-10-01T18:08:55.545Z,20.19
2022-10-01T18:11:24.221Z,20.29
2022-10-01T18:13:52.007Z,20.73
2022-10-01T18:16:19.653Z,20.25
2022-10-01T18:21:34.420Z,20.84
2022-10-01T18:24:04.530Z,20.58
2022-10-01T18:26:32.527Z,20.17
2022-10-01T18:29:00.122Z,19.95
2022-10-01T18:31:27.752Z,20.09
2022-10-01T18:33:58.915Z,20.50
2022-10-01T18:36:27.481Z,20.70
2022-10-01T18:38:58.632Z,20.45
2022-10-01T18:41:36.290Z,20.38
2022-10-01T18:44:04.101Z,20.52
2022-10-01T18:46:38.453Z,20.61
2022-10-01T18:49:05.816Z,20.49
2022-10-01T18:51:52.142Z,20.29
2022-10-01T18:54:19.476Z,20.35
2022-10-01T18:57:05.807Z,20.17
2022-10-01T18:59:33.262Z,19.17
2022-10-01T19:02:04.427Z,19.88
2022-10-01T19:04:35.438Z,20.18
2022-10-01T19:07:19.923Z,20.45
2022-10-01T19:09:56.654Z,19.77
2022-10-01T19:12:27.178Z,19.16
2022-10-01T19:14:57.497Z,19.30
2022-10-01T19:17:24.845Z,19.81
2022-10-01T19:19:54.771Z,19.84
2022-10-01T19:22:24.595Z,20.08
2022-10-01T19:24:55.035Z,19.64
2022-10-01T19:27:31.505Z,20.07
2022-10-01T19:29:58.810Z,19.80
2022-10-01T19:32:27.355Z,19.53
2022-10-01T19:35:03.008Z,20.15
2022-10-01T19:37:36.848Z,19.89
2022-10-01T19:40:07.971Z,20.18
2022-10-01T19:42:36.873Z,20.01
2022-10-01T19:45:19.796Z,20.13
2022-10-01T19:47:51.170Z,20.30
2022-10-01T19:50:18.297Z,20.32
2022-10-01T19:52:48.303Z,20.71
2022-10-01T19:55:16.226Z,20.51
2022-10-01T19:57:43.708Z,20.50
2022-10-01T20:00:17.412Z,20.61
2022-10-01T20:03:04.068Z,20.61
2022-10-01T20:05:49.769Z,20.59
2022-10-01T20:08:27.708Z,20.82
2022-10-01T20:10:55.993Z,20.98
2022-10-01T20:13:23.335Z,19.63
2022-10-01T20:15:53.388Z,20.08
2022-10-01T20:18:27.745Z,20.70
2022-10-01T20:21:18.170Z,20.48
2022-10-01T20:24:07.765Z,20.76
2022-10-01T20:26:38.361Z,20.83
2022-10-01T20:29:24.793Z,20.19
2022-10-01T20:32:04.640Z,20.80
2022-10-01T20:34:44.158Z,19.98
2022-10-01T20:37:14.354Z,20.14
2022-10-01T20:40:01.741Z,20.24
2022-10-01T20:42:30.944Z,20.11
2022-10-01T20:45:00.506Z,20.30
2022-10-01T20:47:29.219Z,19.23
2022-10-01T20:50:09.582Z,20.09
2022-10-01T20:52:41.692Z,20.60
2022-10-01T20:55:31.935Z,20.64
2022-10-01T20:58:00.273Z,20.15
2022-10-01T21:00:27.908Z,19.55
2022-10-01T21:03:05.123Z,19.65
2022-10-01T21:05:37.710Z,18.31
2022-10-01T21:08:06.753Z,19.18
2022-10-01T21:10:44.857Z,19.96
2022-10-01T21:13:13.994Z,19.97
2022-10-01T21:15:45.133Z,19.55
2022-10-01T21:18:15.869Z,20.09
2022-10-01T21:20:55.189Z,18.47
2022-10-01T21:23:31.565Z,18.77
2022-10-01T21:26:12.215Z,19.55
2022-10-01T21:28:46.662Z,20.09
2022-10-01T21:31:29.383Z,19.80
2022-10-01T21:34:03.757Z,19.78
2022-10-01T21:36:33.689Z,19.19
2022-10-01T21:39:01.117Z,19.48
2022-10-01T21:41:32.208Z,19.90
2022-10-01T21:44:17.971Z,19.67
2022-10-01T21:46:55.721Z,19.10
2022-10-01T21:49:29.228Z,19.14
2022-10-01T21:52:03.651Z,19.00
2022-10-01T21:54:49.990Z,19.67
2022-10-01T21:57:35.920Z,19.47
2022-10-01T22:00:09.158Z,18.96
2022-10-01T22:02:45.735Z,19.37
2022-10-01T22:05:25.008Z,19.27
2022-10-01T22:07:58.579Z,19.23
2022-10-01T22:10:31.740Z,19.14
2022-10-01T22:13:00.633Z,19.41
2022-10-01T22:15:39.749Z,19.16
2022-10-01T22:18:07.990Z,19.11
2022-10-01T22:20:35.133Z,18.75
2022-10-01T22:23:03.598Z,19.16
2022-10-01T22:25:30.973Z,18.25
2022-10-01T22:28:00.010Z,18.09
2022-10-01T22:30:28.949Z,18.58
2022-10-01T22:33:10.182Z,19.30
2022-10-01T22:35:46.559Z,18.97
2022-10-01T22:38:18.820Z,18.12
2022-10-01T22:40:47.237Z,19.08
2022-10-01T22:43:14.631Z,18.60
2022-10-01T22:45:41.687Z,19.76
2022-10-01T22:48:11.714Z,19.38
2022-10-01T22:50:42.162Z,18.53
2022-10-01T22:53:15.616Z,19.11
2022-10-01T22:55:43.293Z,18.85
2022-10-01T22:58:13.507Z,18.37
2022-10-01T23:01:01.650Z,19.11
2022-10-01T23:03:29.085Z,19.13
2022-10-01T23:06:06.134Z,19.08
2022-10-01T23:08:36.556Z,18.66
2022-10-01T23:11:18.920Z,19.43
2022-10-01T23:13:52.091Z,19.24
2022-10-01T23:16:19.216Z,18.53
2022-10-01T23:18:52.372Z,18.67
2022-10-01T23:21:32.706Z,18.79
2022-10-01T23:24:18.843Z,18.74
2022-10-01T23:26:56.879Z,19.15
2022-10-01T23:29:26.680Z,19.12
2022-10-01T23:31:59.835Z,19.85
2022-10-01T23:34:29.636Z,18.67
2022-10-01T23:37:15.582Z,18.84
2022-10-01T23:39:55.509Z,18.91
2022-10-01T23:42:34.859Z,18.78
2022-10-01T23:45:18.055Z,19.28
2022-10-01T23:47:54.156Z,18.60
2022-10-01T23:50:23.196Z,17.98
2022-10-01T23:53:09.310Z,18.25
2022-10-01T23:56:15.814Z,18.38
2022-10-01T23:58:47.392Z,18.08
